Aérodrome :
LOGIN :

S'inscrire | Disclaimer

   EN    FR    IT 

 










Légende :    VFR   VFR Marginal   IFR   IFR Intensif   IFR Très Intensif
Visi : 
Plafond : 
>= 8 km
>= 3000ft
5 à 8 km
1000 à 3000 ft
1500m à 5 km
500 à 1000 ft
800 à 1500m
200 à 500 ft
< 800m
< 200 ft
Symboles :   Orages  Brouillard  Fortes neiges  Fortes précipitations  Vent > 20 kt
SIGMETs :   Divers  Orages  Givrage  Turbulence  Onde Orograph.  Cendres Volcan.






- Altitude de l'aérodrome : 1046 ft
- Code IATA : NUE


EDDN - Nuremberg

DERNIER METAR :
  • 162220Z AUTO 09003KT CAVOK 19/12 Q1012

METARs EXPIRÉS :
  • 162150Z AUTO 09003KT 030V100 CAVOK 19/12 Q1012
  • 162120Z AUTO 08005KT CAVOK 21/12 Q1012
  • 162050Z AUTO 08006KT CAVOK 21/12 Q1012
  • 162020Z AUTO 08004KT 050V110 CAVOK 21/12 Q1011
  • 161950Z AUTO 07005KT CAVOK 22/12 Q1011 NOSIG

TAF TAF EDDN
Valide du 16 à 18h jusqu'au 17 à 18h UTC


161700Z 1618/1718 24006KT CAVOK
BECMG 1618/1619 VRB03KT
BECMG 1708/1711 10005KT



MET'MAP, la Météo Aéronautique d'un coup d'oeil ! - Copyright ORBIFLY Décembre 2007 - Disclaimer

ORBIFLY MET'MAP TEAM :

Programmation & Développement : Alexandra Zaïnal
Sur une idée originale de : Baudouin d'Aumeries
Soutien technique & logistique : Manuel Goepfert
Assistance : Marc-Olivier Méhu




SOURCES & CREDITS :

   NOAA